Time;durP1;ratioP1;P1;durP2;ratioP2;P2;SDS_P1;SDS_P2;PMS_P1;PMS_P2;Temp;Humidity;BMP_temperature;BMP_pressure;BME280_temperature;BME280_humidity;BME280_pressure;Samples;Min_cycle;Max_cycle;Signal;HPM_P1;HPM_P2
2023/03/25 00:01:50;;;;;;;4.20;1.00;;;8.80;99.90;;;9.33;100.00;97291.88;4998460;28;20541;-77
2023/03/25 00:04:19;;;;;;;2.67;0.90;;;8.80;99.90;;;9.33;100.00;97292.66;4997956;28;20893;-77
2023/03/25 00:06:50;;;;;;;4.93;1.17;;;8.80;99.90;;;9.37;100.00;97291.25;4997692;28;20471;-77
2023/03/25 00:09:19;;;;;;;3.90;1.00;;;8.80;99.90;;;9.41;100.00;97297.69;4998625;28;20562;-77
2023/03/25 00:11:51;;;;;;;2.30;1.20;;;8.90;99.90;;;9.38;100.00;97290.25;4996980;28;20471;-77
2023/03/25 00:14:21;;;;;;;0.97;0.93;;;8.80;99.90;;;9.36;100.00;97281.84;4998309;28;20476;-77
2023/03/25 00:16:51;;;;;;;6.63;1.27;;;8.80;99.90;;;9.33;100.00;97277.03;4998775;28;20558;-77
2023/03/25 00:19:21;;;;;;;1.70;1.17;;;8.80;99.90;;;9.35;100.00;97282.84;4997891;28;20467;-77
2023/03/25 00:21:53;;;;;;;2.50;1.27;;;8.80;99.90;;;9.35;100.00;97277.63;4998047;28;20470;-77
2023/03/25 00:24:23;;;;;;;4.07;1.13;;;8.80;99.90;;;9.38;100.00;97277.22;5001530;28;20557;-77
2023/03/25 00:26:53;;;;;;;2.30;1.17;;;8.80;99.90;;;9.41;100.00;97287.25;5003800;28;20553;-77
2023/03/25 00:29:22;;;;;;;3.30;1.13;;;8.80;99.90;;;9.44;100.00;97281.63;5003036;28;20474;-77
2023/03/25 00:31:51;;;;;;;4.50;1.77;;;8.80;99.90;;;9.39;100.00;97273.63;5002148;28;20467;-77
2023/03/25 00:34:20;;;;;;;2.10;1.60;;;8.80;99.90;;;9.46;100.00;97273.63;5001389;28;20631;-77
2023/03/25 00:36:49;;;;;;;3.20;1.10;;;8.90;99.90;;;9.47;100.00;97277.84;5001067;28;20502;-77
2023/03/25 00:39:20;;;;;;;1.50;1.17;;;8.90;99.90;;;9.46;100.00;97276.22;5003826;28;20502;-77
2023/03/25 00:41:50;;;;;;;3.17;1.30;;;8.90;99.90;;;9.45;100.00;97272.81;5002688;28;20922;-77
2023/03/25 00:44:21;;;;;;;5.90;1.00;;;8.90;99.90;;;9.54;100.00;97265.59;4997824;28;20469;-77
2023/03/25 00:46:50;;;;;;;5.87;1.47;;;8.90;99.90;;;9.55;100.00;97268.00;4997688;28;20573;-77
2023/03/25 00:49:23;;;;;;;6.23;1.30;;;9.00;99.90;;;9.59;100.00;97263.19;4995541;28;20467;-77
2023/03/25 00:51:53;;;;;;;6.73;1.37;;;9.00;99.90;;;9.56;100.00;97269.63;4998186;28;21360;-77
2023/03/25 00:54:24;;;;;;;5.13;1.00;;;9.00;99.90;;;9.54;100.00;97263.78;4996880;28;20497;-77
2023/03/25 00:56:55;;;;;;;5.63;1.27;;;9.00;99.90;;;9.50;100.00;97270.41;4997578;28;20880;-77
2023/03/25 00:59:24;;;;;;;3.20;1.10;;;8.90;99.90;;;9.57;100.00;97262.59;4998913;28;20483;-77
2023/03/25 01:01:55;;;;;;;4.63;1.17;;;9.00;99.90;;;9.51;100.00;97261.56;4996555;28;20459;-77
2023/03/25 01:04:25;;;;;;;2.50;1.47;;;9.00;99.90;;;9.46;100.00;97271.00;4996809;28;20594;-77
2023/03/25 01:06:55;;;;;;;7.53;1.67;;;8.90;99.90;;;9.47;100.00;97265.59;4995374;28;20889;-77
2023/03/25 01:09:26;;;;;;;1.90;1.57;;;8.90;99.90;;;9.48;100.00;97267.19;4996916;28;20466;-77
2023/03/25 01:11:56;;;;;;;2.30;1.20;;;8.80;99.90;;;9.50;100.00;97262.59;4997170;28;20497;-77
2023/03/25 01:14:27;;;;;;;1.07;0.90;;;8.90;99.90;;;9.51;100.00;97266.00;4996205;28;21895;-77
2023/03/25 01:17:00;;;;;;;2.80;1.03;;;8.90;99.90;;;9.48;100.00;97261.16;4997964;28;20467;-77
2023/03/25 01:19:29;;;;;;;1.30;0.87;;;9.00;99.90;;;9.48;100.00;97261.16;4998851;28;20518;-77
2023/03/25 01:21:59;;;;;;;5.20;1.13;;;8.90;99.90;;;9.48;100.00;97253.34;4998678;28;20900;-77
2023/03/25 01:24:31;;;;;;;2.30;1.20;;;8.90;99.90;;;9.46;100.00;97258.78;4996667;28;20456;-77
2023/03/25 01:27:01;;;;;;;4.53;1.10;;;9.00;99.90;;;9.44;100.00;97260.75;4999254;28;20464;-77
2023/03/25 01:29:31;;;;;;;4.10;1.57;;;8.90;99.90;;;9.38;100.00;97256.34;4996541;28;20460;-77
2023/03/25 01:32:02;;;;;;;2.70;1.10;;;8.90;99.90;;;9.37;100.00;97261.78;4998404;28;20499;-77
2023/03/25 01:34:37;;;;;;;3.23;0.90;;;8.90;99.90;;;9.40;100.00;97261.38;4998876;28;21616;-77
2023/03/25 01:37:08;;;;;;;1.20;1.00;;;8.90;99.90;;;9.36;100.00;97268.78;4997286;28;20549;-77
2023/03/25 01:39:41;;;;;;;1.77;1.30;;;8.90;99.90;;;9.36;100.00;97262.75;4997054;28;20467;-77
2023/03/25 01:42:12;;;;;;;3.80;1.10;;;8.90;99.90;;;9.35;100.00;97261.97;4996510;28;20478;-77
2023/03/25 01:45:28;;;;;;;2.33;1.10;;;8.90;99.90;;;9.30;100.00;97255.75;4997238;28;20498;-77
2023/03/25 01:48:09;;;;;;;1.17;0.90;;;8.80;99.90;;;9.27;100.00;97259.53;4997103;28;20515;-77
2023/03/25 01:50:42;;;;;;;5.40;1.60;;;8.80;99.90;;;9.26;100.00;97263.16;4998291;28;20574;-77
2023/03/25 01:53:12;;;;;;;4.00;1.17;;;8.70;99.90;;;9.27;100.00;97254.31;4994898;28;20459;-77
2023/03/25 01:55:46;;;;;;;2.30;1.20;;;8.80;99.90;;;9.27;100.00;97248.28;4995074;28;20533;-77
2023/03/25 01:58:21;;;;;;;3.70;1.00;;;8.80;99.90;;;9.28;100.00;97263.75;4996169;28;20458;-77
2023/03/25 02:00:53;;;;;;;1.80;0.80;;;8.80;99.90;;;9.29;100.00;97264.56;4995800;28;21153;-77
2023/03/25 02:03:25;;;;;;;1.53;1.20;;;8.70;99.90;;;9.30;100.00;97266.94;4997140;28;20470;-77
2023/03/25 02:06:01;;;;;;;6.47;1.20;;;8.70;99.90;;;9.32;100.00;97267.56;4997015;28;20827;-77
2023/03/25 02:08:36;;;;;;;0.80;0.80;;;8.80;99.90;;;9.28;100.00;97263.75;5000543;28;20459;-77
2023/03/25 02:11:10;;;;;;;1.73;1.00;;;8.80;99.90;;;9.29;100.00;97261.94;5000023;28;20491;-77
2023/03/25 02:13:42;;;;;;;3.23;1.10;;;8.80;99.90;;;9.30;100.00;97256.53;5000765;28;20525;-77
2023/03/25 02:16:29;;;;;;;1.20;0.80;;;8.80;99.90;;;9.25;100.00;97261.53;5001793;28;21201;-77
2023/03/25 02:19:31;;;;;;;1.00;0.90;;;8.70;99.90;;;9.28;100.00;97253.31;5000286;28;20466;-77
2023/03/25 02:22:40;;;;;;;1.77;0.90;;;8.70;99.90;;;9.26;100.00;97254.53;4999894;28;20479;-76
2023/03/25 02:25:53;;;;;;;5.00;1.13;;;8.70;99.90;;;9.21;100.00;97255.09;5002669;28;20600;-77
2023/03/25 02:28:35;;;;;;;3.30;0.93;;;8.70;99.90;;;9.26;100.00;97260.56;5000181;28;20549;-77
2023/03/25 02:31:37;;;;;;;1.40;1.00;;;8.70;99.90;;;9.23;100.00;97263.56;5000549;28;20494;-77
2023/03/25 02:34:42;;;;;;;1.80;1.13;;;8.70;99.90;;;9.21;100.00;97260.31;4999736;28;20471;-77
2023/03/25 02:38:05;;;;;;;3.47;1.40;;;8.80;99.90;;;9.25;100.00;97263.34;4980928;28;20475;-77
2023/03/25 02:40:45;;;;;;;1.10;1.00;;;8.70;99.90;;;9.24;100.00;97265.13;4998120;28;20514;-77
2023/03/25 02:43:24;;;;;;;3.20;1.43;;;8.70;99.90;;;9.21;100.00;97260.31;4999391;28;20581;-77
2023/03/25 02:46:01;;;;;;;2.50;1.03;;;8.70;99.90;;;9.24;100.00;97270.34;4999912;28;20948;-76
2023/03/25 02:48:39;;;;;;;2.63;1.10;;;8.70;99.90;;;9.29;100.00;97265.38;5000095;28;20469;-77
2023/03/25 02:51:16;;;;;;;4.33;1.10;;;8.70;99.90;;;9.29;100.00;97261.94;5000495;28;21012;-77
2023/03/25 02:53:51;;;;;;;3.03;1.20;;;8.80;99.90;;;9.24;100.00;97254.72;5003585;28;20464;-77
2023/03/25 02:56:24;;;;;;;2.60;0.90;;;8.70;99.90;;;9.18;100.00;97246.88;5001312;28;20954;-77
2023/03/25 02:58:58;;;;;;;1.03;0.90;;;8.60;99.90;;;9.16;100.00;97252.31;5002528;28;20594;-77
2023/03/25 03:01:26;;;;;;;1.17;1.00;;;8.70;99.90;;;9.17;100.00;97250.47;4999798;28;20558;-77
2023/03/25 03:03:56;;;;;;;5.03;1.23;;;8.70;99.90;;;9.22;100.00;97250.69;4999687;28;20464;-77
2023/03/25 03:06:27;;;;;;;1.83;1.00;;;8.70;99.90;;;9.16;100.00;97246.28;5001711;28;20467;-77
2023/03/25 03:09:24;;;;;;;6.10;1.30;;;8.60;99.90;;;9.18;100.00;97244.25;5001371;28;20533;-77
2023/03/25 03:12:13;;;;;;;1.50;1.03;;;8.70;99.90;;;9.14;100.00;97243.84;5000049;28;20488;-77
2023/03/25 03:15:07;;;;;;;1.23;0.90;;;8.60;99.90;;;9.12;100.00;97234.63;4999573;28;20487;-77
2023/03/25 03:17:48;;;;;;;1.33;1.20;;;8.60;99.90;;;9.12;100.00;97238.06;4995286;28;20491;-77
2023/03/25 03:20:34;;;;;;;2.63;1.00;;;8.60;99.90;;;9.15;100.00;97236.84;4998242;28;21041;-77
2023/03/25 03:23:12;;;;;;;6.47;1.33;;;8.60;99.90;;;9.19;100.00;97243.28;4998385;28;20459;-77
2023/03/25 03:25:52;;;;;;;4.77;1.17;;;8.60;99.90;;;9.17;100.00;97242.66;4998834;28;20458;-77
2023/03/25 03:28:33;;;;;;;5.80;1.40;;;8.60;99.90;;;9.19;100.00;97246.69;4998291;28;20466;-77
2023/03/25 03:31:11;;;;;;;1.40;1.10;;;8.60;99.90;;;9.14;100.00;97249.06;4999869;28;20467;-77
2023/03/25 03:34:09;;;;;;;1.20;1.00;;;8.60;99.90;;;9.15;100.00;97253.28;4998900;28;20471;-77
2023/03/25 03:36:46;;;;;;;1.40;1.10;;;8.60;99.90;;;9.10;100.00;97253.06;4999049;28;20530;-77
2023/03/25 03:39:21;;;;;;;1.47;1.10;;;8.60;99.90;;;9.04;100.00;97256.47;4999771;28;21216;-77
2023/03/25 03:42:01;;;;;;;3.83;0.90;;;8.50;99.90;;;9.02;100.00;97250.66;4998374;28;20549;-77
2023/03/25 03:44:36;;;;;;;3.20;1.03;;;8.50;99.90;;;9.07;100.00;97258.69;4998152;28;20499;-77
2023/03/25 03:47:13;;;;;;;1.73;0.90;;;8.50;99.90;;;9.06;100.00;97263.09;4997545;28;20487;-77
2023/03/25 03:49:50;;;;;;;4.47;1.77;;;8.50;99.90;;;9.02;100.00;97255.88;4999919;28;20459;-77
2023/03/25 03:52:28;;;;;;;12.23;1.40;;;8.50;99.90;;;9.04;100.00;97254.69;4999536;28;20495;-77
2023/03/25 03:55:03;;;;;;;2.30;1.00;;;8.40;99.90;;;9.06;100.00;97254.47;5002238;28;20466;-77
2023/03/25 03:57:45;;;;;;;1.97;1.13;;;8.50;99.90;;;9.04;100.00;97253.88;5002712;28;20474;-77
2023/03/25 04:00:24;;;;;;;6.10;3.90;;;8.50;99.90;;;9.01;100.00;97262.91;4998402;28;20962;-77
2023/03/25 04:03:03;;;;;;;1.90;1.20;;;8.50;99.90;;;9.02;100.00;97266.31;4998312;28;20894;-76
2023/03/25 04:05:37;;;;;;;2.83;1.20;;;8.50;99.90;;;9.03;100.00;97271.31;4996225;28;20467;-77
2023/03/25 04:08:20;;;;;;;4.67;1.33;;;8.50;99.90;;;9.03;100.00;97267.91;4995774;28;20550;-77
2023/03/25 04:10:57;;;;;;;4.20;1.00;;;8.50;99.90;;;9.02;100.00;97266.31;4997407;28;20467;-78
2023/03/25 04:13:35;;;;;;;6.73;3.10;;;8.40;99.90;;;9.02;100.00;97266.31;4996243;28;20579;-77
2023/03/25 04:16:07;;;;;;;2.07;1.43;;;8.50;99.90;;;9.00;100.00;97268.28;4996392;28;20455;-77
2023/03/25 04:18:38;;;;;;;6.20;1.00;;;8.50;99.90;;;8.96;100.00;97269.69;4999322;28;20462;-77
2023/03/25 04:21:14;;;;;;;3.40;1.13;;;8.50;99.90;;;8.90;100.00;97267.84;5000093;28;20542;-78
2023/03/25 04:23:45;;;;;;;2.60;1.00;;;8.40;99.90;;;8.91;100.00;97270.28;5000465;28;20471;-79
2023/03/25 04:26:15;;;;;;;3.37;1.03;;;8.40;99.90;;;8.90;100.00;97267.84;4998359;28;20462;-78
2023/03/25 04:28:47;;;;;;;1.03;0.93;;;8.40;99.90;;;8.88;100.00;97264.66;4999873;28;20459;-78
2023/03/25 04:31:19;;;;;;;3.80;1.10;;;8.40;99.90;;;8.86;100.00;97266.63;4996569;28;20466;-79
2023/03/25 04:33:49;;;;;;;1.30;1.17;;;8.40;99.90;;;8.85;100.00;97265.06;4998106;28;20475;-79
2023/03/25 04:36:19;;;;;;;3.03;1.23;;;8.30;99.90;;;8.81;100.00;97271.66;4999252;28;20558;-78
2023/03/25 04:38:51;;;;;;;8.57;1.27;;;8.30;99.90;;;8.80;100.00;97267.41;4997720;28;20494;-79
2023/03/25 04:41:22;;;;;;;3.07;1.10;;;8.30;99.90;;;8.82;100.00;97265.41;4995976;28;20492;-79
2023/03/25 04:43:52;;;;;;;4.47;1.60;;;8.30;99.90;;;8.85;100.00;97276.25;4996778;28;20472;-79
2023/03/25 04:46:22;;;;;;;2.13;1.00;;;8.30;99.90;;;8.83;100.00;97280.06;4998597;28;20487;-79
2023/03/25 04:48:55;;;;;;;8.33;3.60;;;8.30;99.90;;;8.85;100.00;97271.03;4997202;28;20651;-80
2023/03/25 04:51:26;;;;;;;0.97;0.87;;;8.30;99.90;;;8.77;100.00;97281.66;4995498;28;20467;-80
2023/03/25 04:53:55;;;;;;;2.70;1.07;;;8.20;99.90;;;8.74;100.00;97279.44;4995722;28;20467;-78
2023/03/25 04:56:25;;;;;;;6.93;1.10;;;8.30;99.90;;;8.76;100.00;97277.44;4996086;28;20560;-79
2023/03/25 04:58:55;;;;;;;3.97;1.30;;;8.30;99.90;;;8.75;100.00;97275.00;5000371;28;20817;-78
2023/03/25 05:01:30;;;;;;;4.23;1.40;;;8.30;99.90;;;8.79;100.00;97287.47;4996400;28;20463;-79
2023/03/25 05:04:04;;;;;;;4.43;1.37;;;8.30;99.90;;;8.77;100.00;97284.25;4998078;28;20469;-79
2023/03/25 05:06:34;;;;;;;1.90;0.80;;;8.30;99.90;;;8.75;100.00;97296.66;4997437;28;20471;-78
2023/03/25 05:09:05;;;;;;;4.50;1.03;;;8.20;99.90;;;8.75;100.00;97301.06;4997898;28;20487;-79
2023/03/25 05:11:38;;;;;;;3.53;1.13;;;8.20;99.90;;;8.69;100.00;97288.81;4997329;28;20550;-79
2023/03/25 05:14:09;;;;;;;6.63;1.80;;;8.20;99.90;;;8.69;100.00;97291.44;5002613;28;20465;-78
2023/03/25 05:16:40;;;;;;;2.90;1.20;;;8.20;99.90;;;8.69;100.00;97287.03;4999957;28;20452;-79
2023/03/25 05:19:11;;;;;;;10.70;4.27;;;8.20;99.90;;;8.67;100.00;97283.00;4997117;28;20529;-75
2023/03/25 05:21:42;;;;;;;2.60;1.10;;;8.20;99.90;;;8.66;100.00;97300.44;4995569;28;20467;-79
2023/03/25 05:24:13;;;;;;;4.33;1.00;;;8.20;99.90;;;8.68;100.00;97295.06;4997483;28;20463;-79
2023/03/25 05:26:43;;;;;;;3.67;1.50;;;8.20;99.90;;;8.71;100.00;97295.44;4996332;28;20460;-78
2023/03/25 05:29:15;;;;;;;4.10;1.10;;;8.20;99.90;;;8.74;100.00;97296.88;5001744;28;20254;-78
2023/03/25 05:31:47;;;;;;;4.73;1.53;;;8.20;99.90;;;8.73;100.00;97298.69;4999843;28;20467;-77
2023/03/25 05:34:17;;;;;;;4.50;2.03;;;8.20;99.90;;;8.74;100.00;97300.28;4998389;28;20469;-78
2023/03/25 05:36:47;;;;;;;1.60;1.00;;;8.20;99.90;;;8.75;100.00;97299.28;5000401;28;20558;-78
2023/03/25 05:39:17;;;;;;;2.03;1.10;;;8.20;99.90;;;8.75;100.00;97301.06;4999340;28;20467;-78
2023/03/25 05:41:47;;;;;;;6.07;1.40;;;8.20;99.90;;;8.73;100.00;97300.47;4997772;28;20545;-78
2023/03/25 05:44:19;;;;;;;2.80;0.93;;;8.10;99.90;;;8.78;100.00;97313.75;5001649;28;20462;-78
2023/03/25 05:46:49;;;;;;;4.10;1.33;;;8.20;99.90;;;8.78;100.00;97311.91;5002647;28;20569;-78
2023/03/25 05:49:20;;;;;;;4.07;0.87;;;8.20;99.90;;;8.79;100.00;97310.13;5004706;28;20465;-78
2023/03/25 05:51:52;;;;;;;7.20;1.30;;;8.20;99.90;;;8.77;100.00;97305.13;5003211;28;20477;-78
2023/03/25 05:54:24;;;;;;;3.93;1.47;;;8.20;99.90;;;8.76;100.00;97310.50;5007288;28;20523;-78
2023/03/25 05:56:53;;;;;;;4.03;1.60;;;8.20;99.90;;;8.77;100.00;97309.53;5006595;28;20546;-78
2023/03/25 05:59:24;;;;;;;1.43;1.20;;;8.20;99.90;;;8.76;100.00;97315.72;5006330;28;20517;-78
2023/03/25 06:01:56;;;;;;;2.70;1.30;;;8.20;99.90;;;8.74;100.00;97322.94;5006283;28;20555;-78
2023/03/25 06:04:25;;;;;;;3.70;1.23;;;8.20;99.90;;;8.66;100.00;97318.69;5006621;28;20463;-78
2023/03/25 06:06:56;;;;;;;11.60;1.87;;;8.20;99.90;;;8.68;100.00;97313.31;5006007;28;20991;-78
2023/03/25 06:09:29;;;;;;;5.10;1.70;;;8.20;99.90;;;8.64;100.00;97319.88;5006489;28;20825;-78
2023/03/25 06:12:00;;;;;;;8.57;1.73;;;8.10;99.90;;;8.66;100.00;97316.09;5003498;28;20470;-78
2023/03/25 06:14:31;;;;;;;4.70;1.50;;;8.10;99.90;;;8.70;100.00;97324.31;5002417;28;20580;-78
2023/03/25 06:17:02;;;;;;;9.50;1.40;;;8.20;99.90;;;8.74;100.00;97317.72;5003145;28;20550;-78
2023/03/25 06:19:31;;;;;;;5.03;1.47;;;8.20;99.90;;;8.75;100.00;97322.72;5002361;28;20502;-78
2023/03/25 06:22:02;;;;;;;6.83;2.10;;;8.20;99.90;;;8.73;100.00;97318.72;5002796;28;20473;-78
2023/03/25 06:24:32;;;;;;;3.63;1.43;;;8.20;99.90;;;8.76;100.00;97310.50;5002472;28;20996;-78
2023/03/25 06:27:02;;;;;;;4.83;1.90;;;8.20;99.90;;;8.80;100.00;97315.16;5003023;28;20966;-78
2023/03/25 06:29:35;;;;;;;4.03;1.43;;;8.30;99.90;;;8.78;100.00;97324.16;5002216;28;20458;-78
2023/03/25 06:32:05;;;;;;;4.63;1.70;;;8.20;99.90;;;8.79;100.00;97323.97;5001253;28;20885;-78
2023/03/25 06:34:35;;;;;;;10.30;1.90;;;8.20;99.90;;;8.80;100.00;97322.16;5002686;28;20595;-78
2023/03/25 06:37:06;;;;;;;16.30;1.93;;;8.20;99.90;;;8.78;100.00;97321.56;5002091;28;20562;-78
2023/03/25 06:39:37;;;;;;;7.80;1.90;;;8.20;99.90;;;8.80;100.00;97319.56;5002916;28;20856;-78
2023/03/25 06:42:07;;;;;;;19.23;1.93;;;8.30;99.90;;;8.77;100.00;97309.53;5003027;28;20468;-78
2023/03/25 06:44:38;;;;;;;10.20;1.90;;;8.30;99.90;;;8.78;100.00;97311.13;5001504;28;20495;-78
2023/03/25 06:47:09;;;;;;;10.10;2.53;;;8.30;99.90;;;8.81;100.00;97305.53;5000978;28;21027;-78
2023/03/25 06:49:38;;;;;;;7.20;1.83;;;8.30;99.90;;;8.83;100.00;97308.75;5003313;28;20463;-78
2023/03/25 06:52:07;;;;;;;10.20;1.60;;;8.30;99.90;;;8.82;100.00;97301.91;5002680;28;20474;-78
2023/03/25 06:54:38;;;;;;;15.40;2.10;;;8.30;99.90;;;8.81;100.00;97298.53;5001142;28;20498;-77
2023/03/25 06:57:08;;;;;;;9.63;2.07;;;8.40;99.90;;;8.78;100.00;97300.72;5003184;28;20510;-78
2023/03/25 06:59:40;;;;;;;5.80;1.50;;;8.30;99.90;;;8.80;100.00;97298.72;5002928;28;20990;-78
2023/03/25 07:02:13;;;;;;;11.30;2.40;;;8.30;99.90;;;8.82;100.00;97301.91;5000131;28;20472;-78
2023/03/25 07:04:43;;;;;;;8.00;1.60;;;8.30;99.90;;;8.84;100.00;97303.34;5000840;28;20467;-78
2023/03/25 07:07:12;;;;;;;7.63;2.27;;;8.30;99.90;;;8.89;100.00;97298.34;5002600;28;20970;-78
2023/03/25 07:09:42;;;;;;;7.50;1.80;;;8.30;99.90;;;8.91;100.00;97291.13;5001599;28;20476;-78
2023/03/25 07:12:12;;;;;;;6.87;1.93;;;8.40;99.90;;;8.95;100.00;97286.34;4999767;28;20880;-77
2023/03/25 07:14:45;;;;;;;6.70;2.03;;;8.40;99.90;;;8.95;100.00;97291.56;5002704;28;20990;-78
2023/03/25 07:17:15;;;;;;;10.33;2.27;;;8.40;99.90;;;8.92;100.00;97287.50;5000641;28;20526;-78
2023/03/25 07:19:44;;;;;;;14.53;2.47;;;8.40;99.90;;;9.01;100.00;97285.56;5000495;28;20460;-78
2023/03/25 07:22:14;;;;;;;7.33;2.00;;;8.50;99.90;;;9.06;100.00;97285.75;5001353;28;20646;-78
2023/03/25 07:24:44;;;;;;;19.67;2.47;;;8.50;99.90;;;9.15;100.00;97281.19;5000376;28;20475;-78
2023/03/25 07:27:14;;;;;;;10.90;1.83;;;8.60;99.90;;;9.12;100.00;97279.78;4999623;28;20472;-78
2023/03/25 07:29:46;;;;;;;5.93;2.23;;;8.60;99.90;;;9.08;100.00;97275.94;5000927;28;20945;-78
2023/03/25 07:32:15;;;;;;;6.27;2.07;;;8.60;99.90;;;9.12;100.00;97285.00;4999875;28;20484;-78
2023/03/25 07:34:45;;;;;;;7.63;1.80;;;8.60;99.90;;;9.19;100.00;97282.41;5001722;28;20530;-78
2023/03/25 07:37:15;;;;;;;13.73;2.20;;;8.70;99.90;;;9.18;100.00;97281.59;5001137;28;20471;-78
2023/03/25 07:39:46;;;;;;;8.27;1.73;;;8.70;99.90;;;9.10;100.00;97285.19;4999969;28;20456;-78
2023/03/25 07:42:16;;;;;;;13.00;2.23;;;8.60;99.90;;;9.13;100.00;97283.97;5001199;28;20475;-78
2023/03/25 07:44:47;;;;;;;4.03;1.70;;;8.70;99.90;;;9.15;100.00;97287.19;4999867;28;20819;-78
2023/03/25 07:47:17;;;;;;;12.93;2.27;;;8.70;99.90;;;9.25;100.00;97292.03;5001930;28;20490;-78
2023/03/25 07:49:48;;;;;;;6.60;1.60;;;8.70;99.90;;;9.25;100.00;97295.47;5004649;28;20462;-78
2023/03/25 07:52:19;;;;;;;5.10;1.90;;;8.80;99.90;;;9.21;100.00;97290.81;5005029;28;20474;-78
2023/03/25 07:54:48;;;;;;;7.67;1.93;;;8.80;99.90;;;9.27;100.00;97292.63;5004622;28;20897;-78
2023/03/25 07:57:18;;;;;;;9.80;1.97;;;8.80;99.90;;;9.27;100.00;97296.03;5004506;28;20463;-78
2023/03/25 07:59:49;;;;;;;12.13;2.37;;;8.70;99.90;;;9.33;100.00;97284.84;5004770;28;20475;-79
2023/03/25 08:02:19;;;;;;;6.20;2.00;;;8.80;99.90;;;9.35;100.00;97287.25;4998442;28;20888;-79
2023/03/25 08:04:49;;;;;;;9.40;1.70;;;8.80;99.90;;;9.35;100.00;97293.25;5000886;28;20969;-78
2023/03/25 08:07:19;;;;;;;8.40;2.00;;;8.90;99.90;;;9.39;100.00;97289.25;5000978;28;20467;-78
2023/03/25 08:09:50;;;;;;;8.63;1.53;;;8.90;99.90;;;9.44;100.00;97292.06;5001004;28;20464;-78
2023/03/25 08:12:20;;;;;;;8.03;2.03;;;9.00;99.90;;;9.43;100.00;97290.47;4999472;28;20472;-78
2023/03/25 08:14:51;;;;;;;7.00;1.77;;;9.00;99.90;;;9.43;100.00;97294.91;5000599;28;20495;-78
2023/03/25 08:17:20;;;;;;;6.07;1.70;;;8.90;99.90;;;9.44;100.00;97279.03;5000926;28;20486;-78
2023/03/25 08:19:50;;;;;;;5.10;1.63;;;9.00;99.90;;;9.43;100.00;97272.22;4995986;28;21150;-78
2023/03/25 08:22:20;;;;;;;6.13;1.80;;;8.90;99.90;;;9.54;100.00;97289.88;5000001;28;20473;-78
2023/03/25 08:24:50;;;;;;;3.50;1.23;;;8.90;99.90;;;9.62;100.00;97299.31;4998742;28;21220;-78
2023/03/25 08:27:20;;;;;;;5.40;1.57;;;9.00;99.90;;;9.66;100.00;97302.34;5000444;28;20503;-79
2023/03/25 08:29:56;;;;;;;9.53;1.90;;;9.20;99.90;;;9.71;100.00;97303.38;4997938;28;20491;-78
2023/03/25 08:32:26;;;;;;;3.97;1.10;;;9.20;99.90;;;9.65;100.00;97304.16;4999593;28;21023;-78
2023/03/25 08:34:56;;;;;;;13.30;2.10;;;9.10;99.90;;;9.67;100.00;97314.41;4999315;28;20495;-78
2023/03/25 08:37:25;;;;;;;3.73;1.43;;;9.20;99.90;;;9.60;100.00;97312.59;4999737;28;20541;-78
2023/03/25 08:39:56;;;;;;;4.30;1.53;;;9.00;99.90;;;9.63;100.00;97319.22;5001735;28;20463;-78
2023/03/25 08:42:27;;;;;;;5.70;1.57;;;9.10;99.90;;;9.57;100.00;97317.41;5000131;28;20467;-78
2023/03/25 08:44:58;;;;;;;7.23;1.70;;;9.10;99.90;;;9.60;100.00;97317.00;5000190;28;20463;-78
2023/03/25 08:47:27;;;;;;;5.17;1.33;;;9.10;99.90;;;9.65;100.00;97313.81;5000831;28;20977;-78
2023/03/25 08:49:57;;;;;;;3.13;1.43;;;9.10;99.90;;;9.62;100.00;97314.97;5000457;28;20474;-78
2023/03/25 08:52:27;;;;;;;6.60;1.93;;;9.20;99.90;;;9.64;100.00;97314.81;5000071;28;20517;-78
2023/03/25 08:54:56;;;;;;;5.60;1.33;;;9.10;99.90;;;9.70;100.00;97330.47;5000856;28;20943;-78
2023/03/25 08:57:26;;;;;;;5.57;1.90;;;9.20;99.90;;;9.71;100.00;97313.00;5001241;28;20555;-78
2023/03/25 08:59:55;;;;;;;3.13;1.10;;;9.20;99.90;;;9.72;100.00;97301.56;5000485;28;20479;-78
2023/03/25 09:02:25;;;;;;;5.07;1.33;;;9.20;99.90;;;9.79;100.00;97302.38;4998267;28;21284;-78
2023/03/25 09:04:55;;;;;;;8.57;1.80;;;9.30;99.90;;;9.81;100.00;97297.75;4998463;28;20467;-78
2023/03/25 09:07:25;;;;;;;8.00;1.40;;;9.30;99.90;;;9.83;100.00;97277.44;4998257;28;20468;-78
2023/03/25 09:09:55;;;;;;;3.27;1.30;;;9.30;99.90;;;9.86;100.00;97303.97;4998706;28;20796;-78
2023/03/25 09:12:26;;;;;;;14.80;1.90;;;9.40;99.90;;;9.95;100.00;97315.03;4999032;28;20552;-78
2023/03/25 09:14:55;;;;;;;2.37;1.30;;;9.50;99.90;;;9.92;100.00;97308.41;4998626;28;20578;-78
2023/03/25 09:17:27;;;;;;;3.53;1.27;;;9.40;99.90;;;9.98;100.00;97312.00;4997232;28;20476;-78
2023/03/25 09:19:57;;;;;;;10.30;1.87;;;9.50;99.90;;;10.02;100.00;97287.91;5002735;28;20471;-78
2023/03/25 09:22:28;;;;;;;8.23;1.60;;;9.50;99.90;;;10.09;100.00;97299.16;5002622;28;20476;-78
2023/03/25 09:24:58;;;;;;;4.50;1.47;;;9.60;99.90;;;10.09;100.00;97295.72;5002932;28;20466;-78
2023/03/25 09:27:27;;;;;;;3.93;1.70;;;9.60;99.90;;;10.11;100.00;97293.72;5004247;28;20473;-78
2023/03/25 09:29:57;;;;;;;2.20;1.40;;;9.60;99.90;;;10.19;100.00;97285.69;5004066;28;21000;-78
2023/03/25 09:32:29;;;;;;;6.77;1.47;;;9.70;99.90;;;10.20;100.00;97300.38;5002793;28;20471;-78
2023/03/25 09:34:59;;;;;;;9.80;1.57;;;9.70;99.90;;;10.25;100.00;97284.88;5004042;28;20502;-78
2023/03/25 09:37:28;;;;;;;6.30;1.50;;;9.80;99.90;;;10.28;100.00;97273.22;5005740;28;20472;-78
2023/03/25 09:39:57;;;;;;;3.07;1.40;;;9.80;99.90;;;10.28;100.00;97291.50;5007095;28;20487;-78
2023/03/25 09:43:08;;;;;;;4.53;1.30;;;9.80;99.90;;;10.36;100.00;97294.72;5006012;28;20995;-78
2023/03/25 09:45:43;;;;;;;4.23;1.50;;;9.90;99.90;;;10.40;100.00;97303.75;5005157;28;20479;-78
2023/03/25 09:48:27;;;;;;;1.80;1.20;;;10.10;99.90;;;10.38;100.00;97284.84;5006041;28;20538;-78
2023/03/25 09:51:01;;;;;;;6.80;1.50;;;10.00;99.90;;;10.44;100.00;97293.72;5006784;28;20481;-78
2023/03/25 09:53:40;;;;;;;6.17;1.50;;;10.00;99.90;;;10.44;100.00;97298.94;5007503;28;20884;-78
2023/03/25 09:56:17;;;;;;;2.40;1.10;;;10.00;99.90;;;10.43;100.00;97303.34;5005979;28;20526;-78
2023/03/25 09:58:51;;;;;;;3.43;1.53;;;10.00;99.90;;;10.48;100.00;97311.38;5006200;28;20847;-78
2023/03/25 10:01:35;;;;;;;2.27;1.20;;;10.10;99.90;;;10.52;100.00;97328.25;5002292;28;20495;-78
2023/03/25 10:04:49;;;;;;;3.50;1.20;;;10.00;99.90;;;10.51;100.00;97310.97;5002579;28;20545;-78
2023/03/25 10:07:44;;;;;;;4.77;1.43;;;10.00;99.90;;;10.60;100.00;97309.75;4993547;28;20463;-78
2023/03/25 10:10:27;;;;;;;3.10;1.33;;;10.20;99.90;;;10.67;100.00;97319.38;5002354;28;20459;-78
2023/03/25 10:13:11;;;;;;;1.93;1.27;;;10.20;99.90;;;10.57;100.00;97331.06;5003372;28;20467;-78
2023/03/25 10:15:50;;;;;;;3.93;1.37;;;10.10;99.90;;;10.56;100.00;97324.22;5002258;28;20585;-78
2023/03/25 10:18:45;;;;;;;2.67;0.90;;;10.10;99.90;;;10.61;100.00;97318.41;5002076;28;20555;-78
2023/03/25 10:21:24;;;;;;;4.33;1.13;;;10.10;99.90;;;10.64;100.00;97322.41;5001688;28;21440;-78
2023/03/25 10:24:09;;;;;;;2.97;1.27;;;10.10;99.90;;;10.67;100.00;97329.84;5002933;28;20533;-78
2023/03/25 10:26:46;;;;;;;4.17;1.10;;;10.20;99.90;;;10.70;100.00;97317.16;5000195;28;20493;-78
2023/03/25 10:29:21;;;;;;;4.70;1.10;;;10.20;99.90;;;10.75;100.00;97327.00;5001161;28;20455;-78
2023/03/25 10:31:53;;;;;;;3.43;0.90;;;10.30;99.90;;;10.76;100.00;97323.41;4999819;28;20526;-78
2023/03/25 10:34:37;;;;;;;1.87;0.93;;;10.30;99.90;;;10.69;100.00;97328.63;5002275;28;20522;-77
2023/03/25 10:37:16;;;;;;;3.37;1.00;;;10.30;99.90;;;10.67;100.00;97346.34;5004677;28;21849;-78
2023/03/25 10:39:48;;;;;;;4.10;1.30;;;10.30;99.90;;;10.68;100.00;97349.75;5002453;28;20504;-78
2023/03/25 10:42:28;;;;;;;8.80;1.30;;;10.20;99.90;;;10.70;100.00;97345.91;5001466;28;20550;-78
2023/03/25 10:44:58;;;;;;;4.30;1.40;;;10.20;99.90;;;10.68;100.00;97339.28;5003094;28;20477;-78
2023/03/25 10:47:35;;;;;;;1.10;1.00;;;10.20;99.90;;;10.67;100.00;97345.53;5002834;28;20543;-78
2023/03/25 10:50:08;;;;;;;3.43;1.10;;;10.30;99.90;;;10.68;100.00;97337.50;5003574;28;20553;-78
2023/03/25 10:52:38;;;;;;;7.47;1.63;;;10.30;99.90;;;10.71;100.00;97338.88;5003998;28;20534;-78